createdAt,value
2019-02-25T00:02:02.566Z,11.13
2019-02-25T00:04:31.358Z,12.47
2019-02-25T00:07:00.107Z,11.73
2019-02-25T00:09:28.824Z,10.40
2019-02-25T00:11:57.546Z,11.03
2019-02-25T00:14:26.303Z,9.67
2019-02-25T00:16:55.009Z,9.53
2019-02-25T00:19:23.833Z,10.53
2019-02-25T00:21:52.630Z,10.17
2019-02-25T00:24:21.350Z,8.93
2019-02-25T00:26:50.087Z,8.67
2019-02-25T00:29:18.817Z,9.17
2019-02-25T00:31:47.539Z,10.83
2019-02-25T00:34:16.272Z,10.70
2019-02-25T00:36:45.094Z,9.73
2019-02-25T00:39:13.834Z,10.97
2019-02-25T00:41:42.548Z,10.27
2019-02-25T00:44:11.297Z,11.03
2019-02-25T00:46:40.083Z,10.20
2019-02-25T00:49:08.811Z,10.63
2019-02-25T00:51:37.566Z,9.90
2019-02-25T00:54:06.285Z,9.43
2019-02-25T00:56:35.083Z,9.37
2019-02-25T00:59:03.863Z,10.23
2019-02-25T01:01:32.582Z,11.33
2019-02-25T01:04:01.297Z,10.43
2019-02-25T01:06:30.049Z,10.53
2019-02-25T01:08:58.848Z,10.27
2019-02-25T01:11:27.654Z,10.13
2019-02-25T01:13:56.436Z,11.83
2019-02-25T01:16:25.170Z,11.00
2019-02-25T01:18:54.158Z,11.63
2019-02-25T01:21:22.896Z,12.13
2019-02-25T01:23:51.610Z,12.47
2019-02-25T01:26:20.323Z,10.23
2019-02-25T01:28:49.119Z,11.67
2019-02-25T01:31:17.845Z,11.13
2019-02-25T01:33:46.583Z,9.30
2019-02-25T01:36:15.340Z,10.30
2019-02-25T01:38:44.070Z,10.87
2019-02-25T01:41:12.861Z,11.07
2019-02-25T01:43:41.576Z,10.67
2019-02-25T01:46:10.394Z,12.53
2019-02-25T01:48:39.108Z,12.77
2019-02-25T01:51:07.846Z,11.90
2019-02-25T01:53:36.595Z,11.80
2019-02-25T01:56:05.419Z,10.43
2019-02-25T01:58:34.215Z,9.93
2019-02-25T02:01:03.007Z,10.03
2019-02-25T02:03:31.742Z,11.07
2019-02-25T02:06:00.543Z,12.03
2019-02-25T02:08:29.285Z,10.40
2019-02-25T02:10:58.104Z,10.50
2019-02-25T02:13:26.902Z,9.67
2019-02-25T02:15:55.724Z,9.27
2019-02-25T02:18:24.422Z,9.37
2019-02-25T02:20:53.158Z,10.43
2019-02-25T02:23:21.862Z,11.53
2019-02-25T02:25:51.806Z,11.27
2019-02-25T02:28:20.600Z,11.20
2019-02-25T02:30:49.411Z,10.57
2019-02-25T02:33:18.217Z,13.07
2019-02-25T02:35:47.008Z,11.13
2019-02-25T02:38:15.800Z,11.70
2019-02-25T02:40:44.552Z,10.53
2019-02-25T02:43:13.251Z,10.60
2019-02-25T02:45:47.152Z,11.70
2019-02-25T02:48:17.808Z,12.17
2019-02-25T02:50:46.607Z,11.87
2019-02-25T02:53:15.335Z,11.43
2019-02-25T02:55:46.190Z,12.13
2019-02-25T02:58:14.978Z,10.33
2019-02-25T03:00:43.792Z,11.27
2019-02-25T03:03:12.582Z,9.97
2019-02-25T03:05:41.358Z,9.17
2019-02-25T03:08:10.098Z,9.57
2019-02-25T03:10:38.880Z,10.23
2019-02-25T03:13:07.602Z,9.00
2019-02-25T03:15:36.336Z,10.03
2019-02-25T03:18:05.150Z,9.73
2019-02-25T03:20:33.867Z,10.40
2019-02-25T03:23:04.932Z,9.83
2019-02-25T03:25:33.629Z,11.57
2019-02-25T03:28:02.434Z,10.83
2019-02-25T03:30:31.211Z,9.90
2019-02-25T03:32:59.973Z,11.13
2019-02-25T03:35:28.759Z,11.00
2019-02-25T03:37:57.567Z,10.67
2019-02-25T03:40:26.306Z,10.00
2019-02-25T03:42:55.048Z,10.47
2019-02-25T03:45:23.855Z,11.03
2019-02-25T03:47:52.560Z,10.97
2019-02-25T03:50:21.406Z,10.47
2019-02-25T03:52:50.170Z,10.80
2019-02-25T03:55:18.884Z,10.70
2019-02-25T03:57:47.703Z,11.10
2019-02-25T04:00:17.576Z,10.60
2019-02-25T04:02:46.393Z,10.43
2019-02-25T04:05:15.097Z,11.80
2019-02-25T04:07:43.926Z,11.47
2019-02-25T04:10:12.845Z,11.70
2019-02-25T04:12:41.597Z,10.27
2019-02-25T04:15:11.646Z,9.57
2019-02-25T04:17:40.470Z,9.33
2019-02-25T04:20:10.472Z,11.00
2019-02-25T04:22:58.327Z,10.47
2019-02-25T04:25:27.109Z,10.43
2019-02-25T04:27:55.924Z,10.63
2019-02-25T04:30:24.627Z,9.83
2019-02-25T04:32:53.366Z,10.47
2019-02-25T04:35:22.192Z,10.20
2019-02-25T04:37:51.001Z,9.73
2019-02-25T04:40:19.817Z,11.43
2019-02-25T04:42:48.670Z,10.50
2019-02-25T04:45:17.588Z,10.97
2019-02-25T04:47:46.311Z,10.10
2019-02-25T04:50:15.057Z,11.90
2019-02-25T04:52:43.870Z,10.50
2019-02-25T04:55:12.604Z,10.13
2019-02-25T04:57:41.416Z,10.57
2019-02-25T05:00:11.673Z,12.23
2019-02-25T05:02:40.470Z,11.10
2019-02-25T05:05:09.326Z,11.60
2019-02-25T05:07:38.081Z,10.83
2019-02-25T05:10:07.409Z,11.23
2019-02-25T05:12:36.159Z,10.80
2019-02-25T05:15:05.239Z,11.03
2019-02-25T05:17:34.013Z,10.47
2019-02-25T05:20:02.774Z,11.57
2019-02-25T05:22:31.628Z,11.47
2019-02-25T05:25:00.509Z,11.63
2019-02-25T05:27:29.225Z,8.53
2019-02-25T05:29:58.079Z,15.43
2019-02-25T05:32:26.890Z,13.23
2019-02-25T05:34:55.706Z,14.67
2019-02-25T05:37:24.503Z,10.93
2019-02-25T05:39:53.295Z,9.60
2019-02-25T05:42:22.188Z,10.43
2019-02-25T05:44:50.996Z,10.33
2019-02-25T05:47:19.765Z,10.10
2019-02-25T05:49:48.585Z,10.47
2019-02-25T05:52:17.300Z,10.80
2019-02-25T05:54:46.014Z,11.33
2019-02-25T05:57:14.802Z,10.10
2019-02-25T05:59:43.536Z,10.83
2019-02-25T06:02:12.251Z,10.10
2019-02-25T06:04:41.043Z,12.13
2019-02-25T06:07:10.475Z,11.17
2019-02-25T06:09:39.381Z,11.93
2019-02-25T06:12:08.167Z,11.03
2019-02-25T06:14:36.912Z,11.43
2019-02-25T06:17:05.703Z,11.70
2019-02-25T06:19:34.530Z,11.37
2019-02-25T06:22:03.279Z,10.90
2019-02-25T06:24:32.200Z,10.47
2019-02-25T06:27:00.984Z,10.77
2019-02-25T06:29:29.792Z,10.37
2019-02-25T06:31:58.601Z,10.63
2019-02-25T06:34:27.440Z,11.13
2019-02-25T06:36:56.181Z,10.83
2019-02-25T06:39:24.936Z,11.50
2019-02-25T06:41:53.731Z,11.13
2019-02-25T06:44:22.652Z,11.03
2019-02-25T06:46:51.461Z,10.87
2019-02-25T06:49:20.314Z,10.23
2019-02-25T06:51:49.050Z,9.50
2019-02-25T06:54:17.866Z,9.40
2019-02-25T06:56:46.666Z,10.50
2019-02-25T06:59:15.407Z,10.70
2019-02-25T07:01:44.160Z,10.33
2019-02-25T07:04:32.019Z,11.43
2019-02-25T07:07:10.079Z,9.70
2019-02-25T07:09:47.563Z,10.07
2019-02-25T07:12:23.608Z,10.37
2019-02-25T07:15:14.290Z,10.43
2019-02-25T07:18:06.817Z,9.97
2019-02-25T07:20:53.344Z,10.07
2019-02-25T07:23:43.916Z,10.73
2019-02-25T07:26:34.787Z,10.10
2019-02-25T07:29:21.259Z,11.77
2019-02-25T07:32:12.319Z,10.23
2019-02-25T07:34:57.778Z,11.17
2019-02-25T07:38:00.926Z,11.37
2019-02-25T07:40:53.712Z,11.80
2019-02-25T07:43:35.736Z,11.67
2019-02-25T07:46:28.563Z,12.87
2019-02-25T07:49:04.851Z,12.43
2019-02-25T07:51:41.530Z,11.77
2019-02-25T07:54:21.470Z,12.40
2019-02-25T07:57:07.865Z,12.73
2019-02-25T08:00:04.767Z,12.07
2019-02-25T08:02:55.348Z,12.47
2019-02-25T08:05:36.497Z,12.77
2019-02-25T08:08:42.791Z,12.97
2019-02-25T08:11:48.720Z,13.80
2019-02-25T08:14:35.235Z,13.10
2019-02-25T08:17:16.825Z,12.53
2019-02-25T08:19:55.821Z,12.93
2019-02-25T08:22:58.867Z,13.10
2019-02-25T08:25:58.914Z,11.90
2019-02-25T08:28:52.764Z,12.47
2019-02-25T08:31:34.590Z,12.37
2019-02-25T08:34:31.576Z,13.70
2019-02-25T08:37:20.009Z,14.40
2019-02-25T08:40:01.625Z,13.63
2019-02-25T08:42:48.636Z,13.73
2019-02-25T08:45:36.607Z,13.67
2019-02-25T08:48:24.463Z,13.77
2019-02-25T08:50:53.220Z,14.53
2019-02-25T08:53:22.011Z,14.57
2019-02-25T08:55:50.711Z,14.80
2019-02-25T08:58:19.457Z,16.30
2019-02-25T09:00:48.181Z,15.33
2019-02-25T09:03:17.039Z,14.70
2019-02-25T09:05:45.794Z,15.23
2019-02-25T09:08:14.550Z,14.03
2019-02-25T09:10:43.332Z,14.93
2019-02-25T09:13:12.056Z,15.57
2019-02-25T09:15:40.796Z,15.87
2019-02-25T09:18:10.482Z,13.90
2019-02-25T09:20:39.208Z,15.20
2019-02-25T09:23:07.974Z,15.27
2019-02-25T09:25:36.788Z,16.80
2019-02-25T09:28:05.588Z,15.23
2019-02-25T09:30:34.360Z,15.77
2019-02-25T09:33:03.168Z,16.37
2019-02-25T09:35:31.972Z,15.50
2019-02-25T09:38:01.124Z,15.17
2019-02-25T09:40:29.842Z,16.23
2019-02-25T09:42:58.589Z,15.40
2019-02-25T09:45:27.291Z,16.67
2019-02-25T09:47:56.031Z,16.00
2019-02-25T09:50:24.763Z,15.77
2019-02-25T09:52:53.498Z,16.03
2019-02-25T09:55:23.637Z,16.77
2019-02-25T09:57:52.622Z,16.13
2019-02-25T10:00:21.610Z,14.80
2019-02-25T10:02:50.403Z,16.50
2019-02-25T10:05:19.229Z,16.40
2019-02-25T10:07:48.067Z,14.50
2019-02-25T10:10:17.081Z,15.67
2019-02-25T10:12:45.856Z,15.23
2019-02-25T10:15:15.010Z,15.90
2019-02-25T10:17:43.864Z,15.93
2019-02-25T10:20:12.677Z,15.67
2019-02-25T10:22:41.480Z,15.43
2019-02-25T10:25:10.317Z,16.40
2019-02-25T10:27:39.030Z,15.07
2019-02-25T10:30:08.670Z,14.87
2019-02-25T10:32:37.435Z,15.57
2019-02-25T10:35:06.991Z,14.90
2019-02-25T10:37:36.407Z,15.90
2019-02-25T10:40:06.462Z,15.17
2019-02-25T10:42:36.081Z,16.53
2019-02-25T10:45:07.353Z,15.93
2019-02-25T10:47:38.356Z,15.63
2019-02-25T10:50:10.865Z,14.73
2019-02-25T10:52:41.311Z,14.77
2019-02-25T10:55:13.719Z,14.47
2019-02-25T10:57:42.432Z,15.53
2019-02-25T11:00:13.801Z,15.23
2019-02-25T11:02:44.446Z,14.50
2019-02-25T11:05:13.200Z,14.20
2019-02-25T11:07:42.063Z,14.27
2019-02-25T11:10:35.083Z,16.27
2019-02-25T11:13:04.352Z,15.47
2019-02-25T11:15:34.386Z,15.53
2019-02-25T11:18:03.147Z,14.47
2019-02-25T11:20:33.431Z,14.23
2019-02-25T11:23:21.774Z,15.30
2019-02-25T11:25:51.488Z,15.07
2019-02-25T11:28:25.459Z,15.07
2019-02-25T11:30:53.526Z,13.90
2019-02-25T11:33:23.230Z,14.50
2019-02-25T11:35:52.512Z,14.47
2019-02-25T11:38:21.218Z,14.50
2019-02-25T11:40:49.985Z,14.57
2019-02-25T11:43:21.498Z,13.97
2019-02-25T11:45:49.460Z,14.67
2019-02-25T11:48:18.195Z,15.10
2019-02-25T11:50:46.934Z,14.70
2019-02-25T11:53:15.709Z,14.27
2019-02-25T11:55:44.467Z,15.37
2019-02-25T11:58:13.384Z,15.47
2019-02-25T12:00:42.256Z,13.23
2019-02-25T12:03:11.011Z,14.63
2019-02-25T12:05:40.808Z,15.17
2019-02-25T12:08:09.522Z,15.30
2019-02-25T12:10:38.306Z,15.37
2019-02-25T12:13:07.047Z,15.00
2019-02-25T12:15:35.774Z,15.30
2019-02-25T12:18:04.500Z,15.70
2019-02-25T12:20:33.284Z,14.17
2019-02-25T12:23:02.078Z,14.30
2019-02-25T12:25:30.900Z,12.97
2019-02-25T12:27:59.623Z,14.73
2019-02-25T12:30:28.376Z,13.53
2019-02-25T12:32:57.124Z,13.87
2019-02-25T12:35:25.968Z,13.60
2019-02-25T12:37:54.699Z,14.17
2019-02-25T12:40:23.416Z,13.80
2019-02-25T12:42:52.158Z,12.87
2019-02-25T12:45:20.862Z,13.03
2019-02-25T12:47:49.595Z,14.27
2019-02-25T12:50:18.398Z,13.60
2019-02-25T12:52:47.187Z,12.07
2019-02-25T12:55:15.972Z,12.43
2019-02-25T12:57:44.822Z,11.97
2019-02-25T13:00:13.958Z,12.43
2019-02-25T13:02:42.788Z,12.27
2019-02-25T13:05:12.416Z,12.40
2019-02-25T13:07:41.211Z,12.70
2019-02-25T13:10:11.155Z,12.27
2019-02-25T13:12:39.976Z,13.60
2019-02-25T13:15:13.251Z,12.97
2019-02-25T13:17:40.130Z,12.93
2019-02-25T13:20:09.086Z,13.33
2019-02-25T13:22:37.942Z,12.23
2019-02-25T13:25:08.046Z,12.73
2019-02-25T13:27:37.969Z,12.27
2019-02-25T13:30:08.047Z,12.63
2019-02-25T13:32:36.910Z,14.10
2019-02-25T13:35:05.751Z,13.23
2019-02-25T13:37:34.599Z,13.70
2019-02-25T13:40:03.415Z,13.30
2019-02-25T13:42:32.358Z,12.67
2019-02-25T13:45:01.193Z,12.77
2019-02-25T13:47:30.228Z,13.13
2019-02-25T13:49:59.011Z,13.07
2019-02-25T13:52:27.867Z,12.87
2019-02-25T13:54:57.157Z,12.47
2019-02-25T13:57:26.299Z,14.13
2019-02-25T13:59:55.261Z,12.83
2019-02-25T14:02:24.059Z,12.73
2019-02-25T14:04:52.861Z,13.20
2019-02-25T14:07:21.779Z,14.10
2019-02-25T14:09:50.624Z,12.73
2019-02-25T14:12:19.626Z,13.23
2019-02-25T14:14:48.441Z,16.97
2019-02-25T14:17:17.316Z,13.90
2019-02-25T14:19:46.398Z,12.20
2019-02-25T14:22:16.677Z,11.50
2019-02-25T14:24:45.540Z,11.00
2019-02-25T14:27:14.361Z,11.27
2019-02-25T14:29:44.621Z,10.20
2019-02-25T14:32:15.326Z,9.33
2019-02-25T14:34:46.248Z,10.90
2019-02-25T14:37:15.530Z,9.47
2019-02-25T14:39:49.435Z,10.77
2019-02-25T14:42:16.523Z,10.27
2019-02-25T14:44:46.014Z,10.13
2019-02-25T14:47:20.676Z,10.93
2019-02-25T14:49:45.359Z,9.40
2019-02-25T14:52:14.225Z,10.80
2019-02-25T14:54:43.125Z,10.30
2019-02-25T14:57:11.922Z,10.27
2019-02-25T14:59:40.739Z,10.73
2019-02-25T15:02:11.105Z,10.40
2019-02-25T15:04:41.683Z,9.83
2019-02-25T15:07:10.854Z,9.97
2019-02-25T15:09:41.752Z,10.20
2019-02-25T15:12:11.869Z,10.97
2019-02-25T15:14:40.947Z,9.73
2019-02-25T15:17:10.619Z,10.10
2019-02-25T15:19:41.184Z,10.23
2019-02-25T15:22:11.010Z,9.47
2019-02-25T15:24:39.846Z,9.83
2019-02-25T15:27:09.445Z,10.53
2019-02-25T15:29:39.730Z,10.57
2019-02-25T15:32:09.634Z,10.23
2019-02-25T15:34:38.437Z,9.50
2019-02-25T15:37:09.345Z,10.03
2019-02-25T15:39:42.401Z,9.60
2019-02-25T15:42:10.836Z,10.17
2019-02-25T15:44:42.325Z,9.83
2019-02-25T15:47:10.831Z,9.93
2019-02-25T15:49:40.642Z,10.73
2019-02-25T15:52:10.623Z,10.57
2019-02-25T15:54:41.101Z,10.63
2019-02-25T15:57:10.070Z,10.93
2019-02-25T15:59:38.919Z,10.63
2019-02-25T16:02:13.520Z,10.70
2019-02-25T16:04:40.217Z,10.83
2019-02-25T16:07:10.560Z,10.30
2019-02-25T16:09:39.511Z,11.27
2019-02-25T16:12:09.653Z,10.90
2019-02-25T16:14:39.020Z,10.50
2019-02-25T16:17:09.452Z,11.70
2019-02-25T16:19:46.432Z,11.37
2019-02-25T16:22:09.715Z,11.30
2019-02-25T16:24:39.174Z,11.37
2019-02-25T16:27:08.030Z,10.60
2019-02-25T16:29:36.883Z,10.77
2019-02-25T16:32:07.213Z,11.13
2019-02-25T16:34:40.538Z,11.10
2019-02-25T16:37:08.601Z,10.17
2019-02-25T16:39:37.419Z,12.13
2019-02-25T16:42:06.211Z,10.87
2019-02-25T16:44:35.016Z,11.70
2019-02-25T16:47:03.914Z,10.23
2019-02-25T16:49:33.907Z,10.60
2019-02-25T16:52:03.174Z,10.97
2019-02-25T16:54:32.047Z,11.27
2019-02-25T16:57:00.820Z,12.33
2019-02-25T16:59:29.720Z,11.30
2019-02-25T17:02:00.044Z,11.70
2019-02-25T17:04:31.676Z,14.90
2019-02-25T17:07:00.146Z,13.70
2019-02-25T17:09:31.800Z,12.77
2019-02-25T17:12:02.310Z,13.00
2019-02-25T17:14:31.176Z,12.17
2019-02-25T17:17:00.145Z,13.03
2019-02-25T17:19:29.551Z,13.17
2019-02-25T17:21:58.498Z,13.50
2019-02-25T17:24:28.126Z,13.40
2019-02-25T17:26:57.857Z,14.10
2019-02-25T17:29:27.287Z,12.30
2019-02-25T17:31:59.131Z,12.40
2019-02-25T17:34:27.748Z,13.97
2019-02-25T17:36:56.836Z,12.67
2019-02-25T17:39:25.648Z,13.67
2019-02-25T17:41:54.932Z,14.10
2019-02-25T17:44:27.763Z,14.17
2019-02-25T17:46:57.873Z,14.57
2019-02-25T17:49:24.921Z,15.73
2019-02-25T17:51:55.575Z,16.53
2019-02-25T17:54:24.667Z,16.07
2019-02-25T17:56:55.020Z,16.47
2019-02-25T17:59:25.187Z,15.23
2019-02-25T18:01:54.480Z,14.63
2019-02-25T18:04:24.414Z,16.47
2019-02-25T18:06:57.448Z,15.77
2019-02-25T18:09:26.348Z,16.33
2019-02-25T18:11:55.175Z,15.33
2019-02-25T18:14:24.027Z,14.60
2019-02-25T18:16:52.899Z,14.60
2019-02-25T18:19:23.078Z,15.17
2019-02-25T18:21:52.370Z,15.03
2019-02-25T18:24:21.251Z,15.07
2019-02-25T18:26:50.054Z,14.97
2019-02-25T18:29:20.376Z,14.80
2019-02-25T18:31:49.409Z,15.57
2019-02-25T18:34:18.403Z,14.80
2019-02-25T18:36:48.924Z,16.00
2019-02-25T18:39:18.133Z,14.53
2019-02-25T18:41:48.385Z,14.77
2019-02-25T18:44:17.437Z,15.53
2019-02-25T18:46:47.820Z,14.30
2019-02-25T18:49:16.903Z,14.70
2019-02-25T18:51:45.798Z,15.57
2019-02-25T18:54:16.741Z,17.60
2019-02-25T18:56:45.191Z,16.10
2019-02-25T18:59:16.203Z,17.03
2019-02-25T19:01:45.376Z,16.13
2019-02-25T19:04:15.427Z,15.30
2019-02-25T19:06:47.362Z,16.00
2019-02-25T19:09:18.276Z,16.80
2019-02-25T19:11:49.195Z,18.13
2019-02-25T19:14:24.184Z,17.33
2019-02-25T19:16:53.157Z,15.87
2019-02-25T19:19:22.233Z,17.83
2019-02-25T19:21:54.222Z,17.87
2019-02-25T19:24:23.638Z,16.20
2019-02-25T19:26:52.512Z,16.60
2019-02-25T19:29:23.409Z,17.23
2019-02-25T19:31:56.304Z,16.90
2019-02-25T19:34:24.807Z,15.73
2019-02-25T19:36:57.954Z,16.37
2019-02-25T19:39:24.303Z,16.70
2019-02-25T19:41:54.461Z,17.93
2019-02-25T19:44:24.335Z,17.47
2019-02-25T19:46:53.902Z,16.87
2019-02-25T19:49:23.801Z,16.13
2019-02-25T19:51:53.379Z,16.53
2019-02-25T19:54:22.174Z,16.30
2019-02-25T19:56:53.179Z,17.10
2019-02-25T19:59:23.987Z,16.07
2019-02-25T20:01:52.462Z,14.57
2019-02-25T20:04:21.342Z,18.13
2019-02-25T20:06:51.813Z,17.07
2019-02-25T20:09:21.960Z,16.97
2019-02-25T20:11:50.934Z,18.27
2019-02-25T20:14:21.620Z,17.20
2019-02-25T20:16:50.475Z,16.77
2019-02-25T20:19:19.336Z,17.23
2019-02-25T20:21:50.294Z,16.43
2019-02-25T20:24:19.492Z,15.83
2019-02-25T20:26:52.651Z,16.33
2019-02-25T20:29:19.811Z,16.73
2019-02-25T20:31:50.172Z,17.47
2019-02-25T20:34:20.725Z,17.17
2019-02-25T20:36:52.408Z,16.30
2019-02-25T20:39:20.347Z,16.90
2019-02-25T20:41:50.697Z,16.80
2019-02-25T20:44:20.317Z,17.60
2019-02-25T20:46:52.682Z,16.40
2019-02-25T20:49:22.642Z,17.37
2019-02-25T20:51:52.268Z,16.57
2019-02-25T20:54:22.747Z,17.00
2019-02-25T20:56:53.213Z,18.90
2019-02-25T20:59:24.015Z,19.23
2019-02-25T21:01:52.766Z,16.40
2019-02-25T21:04:22.283Z,17.30
2019-02-25T21:06:51.116Z,16.77
2019-02-25T21:09:25.834Z,17.63
2019-02-25T21:11:54.692Z,19.00
2019-02-25T21:14:23.757Z,17.77
2019-02-25T21:16:54.285Z,17.93
2019-02-25T21:19:23.013Z,20.20
2019-02-25T21:21:55.050Z,19.27
2019-02-25T21:24:22.316Z,20.13
2019-02-25T21:26:51.064Z,24.60
2019-02-25T21:29:23.205Z,22.60
2019-02-25T21:31:53.709Z,19.90
2019-02-25T21:34:24.093Z,20.50
2019-02-25T21:36:52.450Z,19.10
2019-02-25T21:39:21.805Z,19.07
2019-02-25T21:41:50.531Z,18.97
2019-02-25T21:44:21.368Z,20.10
2019-02-25T21:46:53.753Z,18.10
2019-02-25T21:49:25.048Z,18.80
2019-02-25T21:51:50.887Z,19.47
2019-02-25T21:54:19.638Z,19.13
2019-02-25T21:56:48.447Z,21.03
2019-02-25T21:59:17.650Z,20.70
2019-02-25T22:01:46.512Z,19.20
2019-02-25T22:04:17.453Z,21.93
2019-02-25T22:06:49.031Z,18.03
2019-02-25T22:09:19.136Z,18.00
2019-02-25T22:11:46.693Z,17.47
2019-02-25T22:14:16.415Z,18.03
2019-02-25T22:16:45.983Z,16.60
2019-02-25T22:19:18.714Z,16.07
2019-02-25T22:21:51.577Z,16.37
2019-02-25T22:24:18.178Z,15.13
2019-02-25T22:26:47.005Z,16.57
2019-02-25T22:29:15.831Z,15.93
2019-02-25T22:31:44.563Z,17.37
2019-02-25T22:34:15.331Z,16.30
2019-02-25T22:36:45.861Z,18.87
2019-02-25T22:39:14.240Z,15.73
2019-02-25T22:41:44.468Z,16.27
2019-02-25T22:44:13.399Z,16.73
2019-02-25T22:46:43.431Z,16.10
2019-02-25T22:49:12.244Z,17.87
2019-02-25T22:51:41.033Z,17.37
2019-02-25T22:54:10.336Z,16.83
2019-02-25T22:56:40.264Z,18.57
2019-02-25T22:59:08.981Z,17.30
2019-02-25T23:01:37.699Z,15.97
2019-02-25T23:04:06.439Z,17.30
2019-02-25T23:06:39.720Z,16.80
2019-02-25T23:09:12.239Z,17.10
2019-02-25T23:11:41.763Z,17.13
2019-02-25T23:14:09.459Z,16.90
2019-02-25T23:16:41.041Z,15.77
2019-02-25T23:19:11.360Z,16.90
2019-02-25T23:21:40.088Z,17.07
2019-02-25T23:24:08.806Z,17.10
2019-02-25T23:26:37.609Z,16.57
2019-02-25T23:29:06.399Z,16.47
2019-02-25T23:31:35.137Z,18.70
2019-02-25T23:34:05.729Z,20.80
2019-02-25T23:36:34.422Z,19.00
2019-02-25T23:39:03.737Z,17.37
2019-02-25T23:41:36.233Z,15.70
2019-02-25T23:44:03.069Z,15.60
2019-02-25T23:46:32.161Z,18.43
2019-02-25T23:49:02.300Z,17.23
2019-02-25T23:51:31.162Z,17.50
2019-02-25T23:53:59.872Z,17.80
2019-02-25T23:56:29.646Z,19.10
2019-02-25T23:58:59.047Z,16.73
